LFHP 181630Z AUTO 36010KT 9999 FEW028/// SCT039/// BKN066/// ///CB 19/13 Q1016

ElémentsDécodage
LFHP Station météo située sur l'aérodrome de LE-PUY loudes
181630Z émis le 18 du mois à 16h30 UTC
AUTO Bulletin édité par un automate
36010KT vent du 360°, 10 noeuds
9999 visibilité horizontale supérieure à 10 Km
FEW028/// nuages rares (1/8 à 2/8) à 2800 pieds
 type de nuage non observable
SCT039/// nuages épars (3/8 à 4/8) à 3900 pieds
 type de nuage non observable
BKN066/// nuages morcelés (5/8 à 7/8) à 6600 pieds
 type de nuage non observable
///CB élement non décodé
19/13 température 19°C, point de rosée 13°C
 soit une humidité relative de 68%
Q1016 la pression au niveau de la mer (QNH) est de 1016 hPa